Time;durP1;ratioP1;P1;durP2;ratioP2;P2;SDS_P1;SDS_P2;PMS_P1;PMS_P2;Temp;Humidity;BMP_temperature;BMP_pressure;BME280_temperature;BME280_humidity;BME280_pressure;Samples;Min_cycle;Max_cycle;Signal;HPM_P1;HPM_P2
2023/03/06 00:03:51;;;;;;;39.40;20.83;;;-2.60;99.90;;;;;;4878783;29;20221;-82
2023/03/06 00:44:19;;;;;;;39.93;22.10;;;-2.80;99.90;;;;;;4950708;28;20768;-83
2023/03/06 01:09:59;;;;;;;34.00;20.80;;;-3.00;99.90;;;;;;4836034;29;20318;-83
2023/03/06 02:36:20;;;;;;;37.30;21.67;;;-3.10;99.90;;;;;;4726998;29;21137;-79
2023/03/06 02:40:39;;;;;;;42.17;22.73;;;-3.10;99.90;;;;;;4687992;29;20546;-80
2023/03/06 03:36:28;;;;;;;37.60;24.10;;;-3.20;99.90;;;;;;4704237;29;21228;-82
2023/03/06 04:02:17;;;;;;;42.27;26.70;;;-3.30;99.90;;;;;;4913541;28;20192;-82
2023/03/06 04:42:58;;;;;;;32.73;19.93;;;-4.20;99.90;;;;;;4835806;29;20211;-83
2023/03/06 05:08:00;;;;;;;39.23;23.00;;;-4.30;99.90;;;;;;4843034;28;20420;-81
2023/03/06 05:28:45;;;;;;;38.87;22.97;;;-4.60;99.90;;;;;;4678485;30;20235;-82
2023/03/06 05:53:45;;;;;;;46.07;23.70;;;-4.50;99.90;;;;;;4651003;30;20407;-81
2023/03/06 06:13:43;;;;;;;44.60;24.73;;;-4.00;99.90;;;;;;4615551;30;20306;-81
2023/03/06 06:49:38;;;;;;;46.23;25.20;;;-2.90;99.90;;;;;;4633642;30;20229;-82
2023/03/06 07:20:09;;;;;;;42.30;24.57;;;-1.90;99.90;;;;;;4680974;29;20225;-80
2023/03/06 07:45:08;;;;;;;36.97;22.50;;;-1.40;97.40;;;;;;4894220;28;20602;-83
2023/03/06 08:16:12;;;;;;;32.33;19.30;;;-0.20;92.90;;;;;;4937494;28;20581;-84
2023/03/06 08:46:23;;;;;;;29.20;17.70;;;1.00;90.10;;;;;;4599822;29;20223;-83
2023/03/06 09:16:44;;;;;;;21.50;13.07;;;2.00;87.00;;;;;;4621392;29;20642;-81
2023/03/06 09:42:22;;;;;;;15.50;9.73;;;2.40;84.90;;;;;;4587060;29;20473;-80
2023/03/06 10:33:00;;;;;;;16.87;10.47;;;3.20;82.20;;;;;;4544220;30;20570;-83
2023/03/06 11:03:19;;;;;;;15.10;8.67;;;2.70;90.10;;;;;;4526741;30;21070;-80
2023/03/06 11:23:41;;;;;;;17.47;10.10;;;2.50;90.50;;;;;;4683171;29;20642;-84
2023/03/06 11:53:45;;;;;;;14.17;9.30;;;1.60;95.30;;;;;;4643355;29;20804;-83
2023/03/06 12:49:25;;;;;;;12.17;8.90;;;0.90;99.90;;;;;;4569118;29;20719;-81
2023/03/06 14:56:18;;;;;;;37.00;21.47;;;1.20;99.90;;;;;;4732985;29;20595;-82
2023/03/06 15:21:38;;;;;;;41.70;22.03;;;1.20;99.90;;;;;;4655812;29;20682;-81
2023/03/06 15:46:57;;;;;;;44.60;25.57;;;1.60;99.90;;;;;;4628591;29;21070;-81
2023/03/06 16:07:47;;;;;;;50.33;27.53;;;1.60;99.90;;;;;;4583367;30;20753;-80
2023/03/06 16:53:27;;;;;;;54.20;29.83;;;1.20;99.90;;;;;;4681587;29;20286;-81
2023/03/06 17:39:05;;;;;;;47.77;25.13;;;1.60;99.90;;;;;;4682097;29;20286;-81
2023/03/06 18:08:54;;;;;;;48.03;26.17;;;1.30;99.90;;;;;;4646224;29;20815;-81
2023/03/06 18:29:55;;;;;;;43.67;25.33;;;1.20;99.90;;;;;;4711090;29;20203;-80
2023/03/06 20:21:15;;;;;;;21.60;13.80;;;1.10;99.90;;;;;;4645353;29;20216;-79
2023/03/06 20:46:40;;;;;;;26.03;15.07;;;1.00;99.90;;;;;;4765176;28;20663;-80
2023/03/06 21:17:13;;;;;;;23.10;14.00;;;0.80;99.90;;;;;;4755250;29;20312;-79
2023/03/06 21:21:33;;;;;;;24.03;13.70;;;0.80;99.90;;;;;;4624802;29;20637;-81
2023/03/06 21:47:07;;;;;;;32.60;19.50;;;0.70;99.90;;;;;;4753947;28;21072;-81
2023/03/06 22:17:28;;;;;;;38.67;22.37;;;0.60;99.90;;;;;;4754839;28;20756;-80
2023/03/06 22:38:17;;;;;;;44.80;23.10;;;0.60;99.90;;;;;;4693716;29;20241;-81
2023/03/06 22:58:04;;;;;;;46.93;24.67;;;0.60;99.90;;;;;;4716315;29;20601;-80
2023/03/06 23:18:42;;;;;;;31.47;16.17;;;0.60;99.90;;;;;;4868357;28;20332;-80
2023/03/06 23:44:11;;;;;;;39.93;21.60;;;-0.20;99.90;;;;;;4763500;29;21059;-80
